Time;durP1;ratioP1;P1;durP2;ratioP2;P2;SDS_P1;SDS_P2;PMS_P1;PMS_P2;Temp;Humidity;BMP_temperature;BMP_pressure;BME280_temperature;BME280_humidity;BME280_pressure;Samples;Min_cycle;Max_cycle;Signal;HPM_P1;HPM_P2
2023/04/22 00:01:49;;;;;;;2.17;2.00;;;8.00;28.00;;;;;;5101435;28;20054;-70
2023/04/22 00:04:23;;;;;;;2.47;2.33;;;7.90;40.40;;;;;;5084220;28;20043;-70
2023/04/22 00:06:55;;;;;;;3.08;2.78;;;7.90;57.00;;;;;;5097909;28;20469;-70
2023/04/22 00:09:26;;;;;;;1.95;1.75;;;7.80;86.90;;;;;;5126961;28;20480;-70
2023/04/22 00:11:58;;;;;;;2.05;1.85;;;7.70;96.60;;;;;;5126255;28;20043;-69
2023/04/22 00:14:30;;;;;;;2.20;2.00;;;7.60;99.90;;;;;;5130921;28;20479;-69
2023/04/22 00:17:01;;;;;;;4.25;2.13;;;7.70;99.90;;;;;;5128110;28;20027;-70
2023/04/22 00:19:33;;;;;;;2.33;2.13;;;7.70;99.90;;;;;;5113296;28;20045;-70
2023/04/22 00:22:07;;;;;;;3.10;2.20;;;7.80;97.30;;;;;;5138560;28;20029;-70
2023/04/22 00:24:42;;;;;;;2.33;2.05;;;7.70;94.50;;;;;;5134484;28;20344;-69
2023/04/22 00:27:13;;;;;;;2.47;2.28;;;7.80;99.20;;;;;;5110691;28;20031;-69
2023/04/22 00:29:47;;;;;;;4.03;2.40;;;7.70;90.10;;;;;;5100537;28;20098;-69
2023/04/22 00:32:18;;;;;;;2.80;2.55;;;7.60;92.50;;;;;;5124106;28;20492;-70
2023/04/22 00:34:50;;;;;;;1.83;1.73;;;7.60;99.90;;;;;;5102448;28;20027;-69
2023/04/22 00:37:21;;;;;;;3.72;2.53;;;7.50;99.90;;;;;;5112339;28;20035;-69
2023/04/22 00:39:56;;;;;;;3.25;2.13;;;7.40;99.90;;;;;;5129885;28;20023;-67
2023/04/22 00:42:28;;;;;;;2.50;1.73;;;7.30;99.90;;;;;;5112742;28;20045;-70
2023/04/22 00:45:02;;;;;;;2.22;2.05;;;7.20;99.90;;;;;;5110088;28;20425;-69
2023/04/22 00:47:37;;;;;;;2.35;1.83;;;7.30;99.90;;;;;;5091245;29;20047;-71
2023/04/22 00:50:13;;;;;;;3.67;2.13;;;7.30;99.90;;;;;;5092302;28;20046;-69
2023/04/22 00:52:44;;;;;;;2.75;2.17;;;7.30;99.90;;;;;;5092639;29;20264;-69
2023/04/22 00:55:18;;;;;;;2.08;1.85;;;7.20;99.90;;;;;;5093788;29;20039;-69
2023/04/22 00:57:50;;;;;;;4.32;3.03;;;7.20;99.90;;;;;;5189213;28;20044;-70
2023/04/22 01:00:25;;;;;;;2.30;2.10;;;7.20;99.90;;;;;;5119864;28;20561;-69
2023/04/22 01:02:57;;;;;;;1.73;1.63;;;7.20;99.90;;;;;;5161406;23;20253;-68
2023/04/22 01:05:32;;;;;;;2.55;2.10;;;7.20;99.90;;;;;;5097390;28;20384;-71
2023/04/22 01:08:06;;;;;;;5.63;2.10;;;7.20;99.90;;;;;;5113059;28;20347;-70
2023/04/22 01:10:40;;;;;;;7.20;2.88;;;7.20;99.90;;;;;;5099937;28;20303;-70
2023/04/22 01:13:20;;;;;;;2.13;1.92;;;7.20;99.90;;;;;;5108102;29;20050;-69
2023/04/22 01:15:53;;;;;;;1.83;1.50;;;7.20;99.90;;;;;;5108411;28;20040;-70
2023/04/22 01:18:27;;;;;;;2.55;1.80;;;7.20;99.90;;;;;;5108619;29;20043;-68
2023/04/22 01:20:58;;;;;;;4.35;2.70;;;7.10;99.90;;;;;;5093293;29;20040;-69
2023/04/22 01:23:35;;;;;;;2.05;1.83;;;7.10;99.90;;;;;;5090294;29;20041;-69
2023/04/22 01:26:06;;;;;;;4.50;2.17;;;7.00;99.90;;;;;;5097199;29;20069;-69
2023/04/22 01:28:37;;;;;;;2.30;1.80;;;7.10;99.90;;;;;;5089556;29;20032;-70
2023/04/22 01:31:09;;;;;;;3.45;2.22;;;7.00;99.90;;;;;;5087680;29;20045;-69
2023/04/22 01:33:40;;;;;;;3.05;2.38;;;7.10;99.90;;;;;;5114693;28;20047;-69
2023/04/22 01:36:14;;;;;;;2.28;2.08;;;7.10;99.90;;;;;;5114126;28;20023;-70
2023/04/22 01:38:45;;;;;;;2.50;2.28;;;7.00;99.90;;;;;;5107750;28;20034;-70
2023/04/22 01:41:17;;;;;;;6.18;2.30;;;7.00;99.90;;;;;;5092140;29;20038;-68
2023/04/22 01:43:54;;;;;;;2.90;2.17;;;7.00;99.90;;;;;;5109630;29;20042;-71
2023/04/22 01:46:25;;;;;;;2.53;2.33;;;7.10;99.90;;;;;;5107039;29;20019;-71
2023/04/22 01:48:56;;;;;;;2.95;2.20;;;7.10;99.90;;;;;;5109722;29;20043;-71
2023/04/22 01:51:30;;;;;;;2.47;2.15;;;7.00;99.90;;;;;;5103784;28;20039;-69
2023/04/22 01:54:04;;;;;;;2.92;1.85;;;7.00;99.90;;;;;;5088666;29;20043;-70
2023/04/22 01:56:39;;;;;;;3.63;2.10;;;7.00;99.90;;;;;;5088887;29;20034;-70
2023/04/22 01:59:14;;;;;;;3.92;2.25;;;7.00;99.90;;;;;;5088577;29;20033;-67
2023/04/22 02:02:03;;;;;;;2.58;2.38;;;6.90;99.90;;;;;;5091715;28;20033;-71
2023/04/22 02:04:40;;;;;;;2.38;1.92;;;6.80;99.90;;;;;;5095386;28;20373;-70
2023/04/22 02:07:14;;;;;;;2.25;1.88;;;6.70;99.90;;;;;;5105348;29;20039;-69
2023/04/22 02:09:46;;;;;;;2.85;1.63;;;6.60;99.90;;;;;;5089509;28;20046;-70
2023/04/22 02:12:20;;;;;;;1.63;1.52;;;6.60;99.90;;;;;;5093344;29;20046;-70
2023/04/22 02:14:54;;;;;;;2.58;2.38;;;6.50;99.90;;;;;;5109870;29;20053;-71
2023/04/22 02:17:26;;;;;;;2.70;2.50;;;6.40;99.90;;;;;;5107244;29;20035;-68
2023/04/22 02:19:59;;;;;;;4.07;1.75;;;6.40;99.90;;;;;;5106134;29;20600;-69
2023/04/22 02:22:32;;;;;;;3.17;1.80;;;6.40;99.90;;;;;;5104473;28;20047;-70
2023/04/22 02:25:07;;;;;;;2.88;2.10;;;6.30;99.90;;;;;;5098362;28;20054;-67
2023/04/22 02:27:41;;;;;;;3.15;2.05;;;6.30;99.90;;;;;;5089958;29;20042;-70
2023/04/22 02:30:15;;;;;;;;;;;6.30;99.90;;;;;;5102694;29;20031;-70
2023/04/22 02:32:49;;;;;;;2.00;1.90;;;6.30;99.90;;;;;;5098673;29;19925;-71
2023/04/22 02:35:20;;;;;;;2.25;1.88;;;6.30;99.90;;;;;;5109380;29;20629;-70
2023/04/22 02:37:52;;;;;;;2.50;2.10;;;6.30;99.90;;;;;;5099195;29;20042;-69
2023/04/22 02:40:23;;;;;;;3.00;1.98;;;6.40;99.90;;;;;;5086793;29;20047;-70
2023/04/22 02:42:55;;;;;;;2.63;1.77;;;6.40;99.90;;;;;;5112441;28;20043;-70
2023/04/22 02:45:27;;;;;;;2.72;2.13;;;6.40;99.90;;;;;;5120692;28;20038;-71
2023/04/22 02:48:01;;;;;;;8.57;3.25;;;6.50;99.90;;;;;;5109805;28;20043;-70
2023/04/22 02:50:35;;;;;;;1.70;1.48;;;6.50;99.90;;;;;;5094402;29;20027;-66
2023/04/22 02:53:12;;;;;;;2.42;2.22;;;6.50;99.90;;;;;;5066308;28;20047;-69
2023/04/22 02:55:43;;;;;;;1.98;1.80;;;6.50;99.90;;;;;;5106511;28;20361;-71
2023/04/22 02:58:15;;;;;;;2.90;2.40;;;6.50;99.90;;;;;;5083194;29;20043;-69
2023/04/22 03:00:46;;;;;;;3.00;1.73;;;6.50;99.90;;;;;;5086433;29;20042;-70
2023/04/22 03:03:17;;;;;;;2.47;1.98;;;6.50;99.90;;;;;;5105730;28;20043;-70
2023/04/22 03:05:48;;;;;;;2.47;1.83;;;6.50;99.90;;;;;;5106663;29;20032;-72
2023/04/22 03:08:22;;;;;;;3.15;2.35;;;6.50;99.90;;;;;;5105245;29;20047;-71
2023/04/22 03:10:53;;;;;;;3.33;2.60;;;6.40;99.90;;;;;;5126106;28;20035;-72
2023/04/22 03:13:25;;;;;;;2.33;2.13;;;6.40;99.90;;;;;;5118552;28;20031;-71
2023/04/22 03:16:02;;;;;;;2.00;1.73;;;6.40;99.90;;;;;;5099948;29;20043;-70
2023/04/22 03:18:39;;;;;;;4.20;3.05;;;6.40;99.90;;;;;;5094223;29;20042;-72
2023/04/22 03:21:10;;;;;;;4.07;3.08;;;6.40;99.90;;;;;;5108939;29;20031;-69
2023/04/22 03:23:41;;;;;;;3.00;2.15;;;6.40;99.90;;;;;;5111585;29;20649;-70
2023/04/22 03:26:12;;;;;;;3.63;2.63;;;6.40;99.90;;;;;;5163726;28;20366;-72
2023/04/22 03:28:46;;;;;;;2.60;2.10;;;6.50;99.90;;;;;;5091237;29;20373;-67
2023/04/22 03:31:18;;;;;;;2.80;2.47;;;6.50;99.90;;;;;;5075330;28;20038;-71
2023/04/22 03:33:51;;;;;;;3.65;2.35;;;6.50;99.90;;;;;;5110929;29;20061;-71
2023/04/22 03:36:26;;;;;;;3.25;2.38;;;6.40;99.90;;;;;;5095695;29;20046;-71
2023/04/22 03:39:02;;;;;;;2.50;2.30;;;6.30;99.90;;;;;;5120357;28;20243;-72
2023/04/22 03:41:33;;;;;;;2.47;2.20;;;6.30;99.90;;;;;;5098428;28;20035;-71
2023/04/22 03:44:04;;;;;;;3.83;3.33;;;6.30;99.90;;;;;;5169258;28;20039;-70
2023/04/22 03:46:38;;;;;;;4.45;3.20;;;6.30;99.90;;;;;;5077314;29;20046;-69
2023/04/22 03:49:13;;;;;;;2.92;2.53;;;6.30;99.90;;;;;;5105789;28;20055;-71
2023/04/22 03:51:44;;;;;;;;;;;6.30;99.90;;;;;;5111157;29;20034;-71
2023/04/22 03:54:15;;;;;;;2.60;2.40;;;6.40;99.90;;;;;;5112083;29;19943;-68
2023/04/22 03:56:49;;;;;;;3.47;2.63;;;6.40;99.90;;;;;;5108132;29;20047;-70
2023/04/22 03:59:20;;;;;;;3.47;2.77;;;6.40;99.90;;;;;;5111571;29;20027;-69
2023/04/22 04:01:59;;;;;;;3.08;2.78;;;6.40;99.90;;;;;;5109387;28;20053;-71
2023/04/22 04:04:34;;;;;;;2.75;2.55;;;6.40;99.90;;;;;;5083530;29;20059;-71
2023/04/22 04:07:09;;;;;;;3.25;2.72;;;6.40;99.90;;;;;;5090793;28;20045;-69
2023/04/22 04:09:40;;;;;;;;;;;6.30;99.90;;;;;;5125816;28;20049;-68
2023/04/22 04:12:15;;;;;;;3.03;2.70;;;6.40;99.90;;;;;;5130456;28;19910;-67
2023/04/22 04:14:46;;;;;;;3.20;2.65;;;6.40;99.90;;;;;;5130337;28;20036;-69
2023/04/22 04:17:24;;;;;;;4.15;3.60;;;6.40;99.90;;;;;;5150203;28;20033;-70
2023/04/22 04:19:57;;;;;;;7.78;2.97;;;6.40;99.90;;;;;;5188688;28;20028;-69
2023/04/22 04:22:32;;;;;;;3.10;2.80;;;6.60;99.90;;;;;;5145629;28;20063;-67
2023/04/22 04:25:05;;;;;;;3.67;2.88;;;6.70;99.90;;;;;;5110397;28;20557;-69
2023/04/22 04:27:40;;;;;;;4.32;3.42;;;6.80;99.90;;;;;;5146549;28;20031;-70
2023/04/22 04:30:12;;;;;;;3.58;2.65;;;7.10;99.90;;;;;;5091685;29;20035;-70
2023/04/22 04:32:51;;;;;;;4.32;3.75;;;7.30;99.90;;;;;;5104921;29;20039;-67
2023/04/22 04:35:25;;;;;;;5.25;3.40;;;7.50;99.90;;;;;;5073923;29;20046;-68
2023/04/22 04:38:01;;;;;;;5.00;3.38;;;7.70;99.90;;;;;;5135437;28;20031;-67
2023/04/22 04:40:33;;;;;;;3.58;3.05;;;8.00;99.90;;;;;;5170373;28;20046;-70
2023/04/22 04:43:07;;;;;;;6.93;3.25;;;8.20;99.90;;;;;;5094059;29;20043;-69
2023/04/22 04:45:38;;;;;;;6.13;4.10;;;8.50;99.90;;;;;;5107636;29;20042;-67
2023/04/22 04:48:13;;;;;;;3.45;3.00;;;8.80;13.90;;;;;;5117748;28;20265;-70
2023/04/22 04:50:44;;;;;;;;;;;9.00;1.00;;;;;;5142384;28;20035;-69
2023/04/22 04:53:16;;;;;;;3.63;2.80;;;9.20;1.00;;;;;;5165188;28;20044;-70
2023/04/22 04:55:51;;;;;;;6.05;3.40;;;9.50;1.00;;;;;;5204918;28;20032;-71
2023/04/22 04:58:22;;;;;;;4.95;3.45;;;9.80;1.00;;;;;;5118935;28;20047;-71
2023/04/22 05:00:55;;;;;;;4.60;3.67;;;10.10;1.00;;;;;;5170241;28;20037;-69
2023/04/22 05:03:29;;;;;;;3.70;3.30;;;10.20;1.00;;;;;;5107287;28;20080;-67
2023/04/22 05:06:02;;;;;;;3.70;3.28;;;10.20;1.00;;;;;;5082591;29;20050;-69
2023/04/22 05:08:35;;;;;;;4.60;3.65;;;10.40;1.00;;;;;;5108345;29;20038;-69
2023/04/22 05:11:07;;;;;;;4.55;4.00;;;10.70;1.00;;;;;;5110045;29;20043;-69
2023/04/22 05:13:40;;;;;;;7.80;4.13;;;11.10;1.00;;;;;;5104766;28;20043;-70
2023/04/22 05:16:14;;;;;;;5.25;3.60;;;11.20;1.00;;;;;;5155208;28;20062;-70
2023/04/22 05:18:50;;;;;;;4.00;3.57;;;11.40;1.00;;;;;;5154379;28;20043;-68
2023/04/22 05:21:22;;;;;;;4.32;3.58;;;11.60;1.00;;;;;;5183762;28;20035;-67
2023/04/22 05:23:55;;;;;;;4.22;3.15;;;11.70;1.00;;;;;;5090924;28;20367;-70
2023/04/22 05:26:27;;;;;;;5.55;3.30;;;11.80;1.00;;;;;;5089890;29;20054;-69
2023/04/22 05:28:58;;;;;;;4.60;3.95;;;12.10;1.00;;;;;;5088656;29;20050;-66
2023/04/22 05:31:29;;;;;;;6.25;4.22;;;12.30;1.00;;;;;;5088400;29;20035;-69
2023/04/22 05:34:03;;;;;;;6.82;4.10;;;12.50;1.00;;;;;;5108882;29;20035;-69
2023/04/22 05:36:35;;;;;;;5.45;3.75;;;12.80;1.00;;;;;;5107609;29;20260;-70
2023/04/22 05:39:08;;;;;;;3.92;3.53;;;12.90;1.00;;;;;;5105674;29;20042;-68
2023/04/22 05:41:40;;;;;;;7.20;4.10;;;13.20;1.00;;;;;;5106888;28;20202;-69
2023/04/22 05:44:14;;;;;;;4.78;3.70;;;13.50;1.00;;;;;;5105606;28;20031;-67
2023/04/22 05:46:49;;;;;;;6.65;4.32;;;13.80;1.00;;;;;;5106460;29;20046;-69
2023/04/22 05:49:20;;;;;;;5.13;4.20;;;14.00;1.00;;;;;;5106087;28;20041;-70
2023/04/22 05:51:57;;;;;;;4.40;3.88;;;14.10;1.00;;;;;;5157213;28;20042;-70
2023/04/22 05:54:28;;;;;;;6.70;4.05;;;14.20;1.00;;;;;;5100078;28;20677;-68
2023/04/22 05:57:01;;;;;;;5.93;4.18;;;14.40;1.00;;;;;;5100901;29;20039;-68
2023/04/22 05:59:35;;;;;;;6.13;5.13;;;14.50;1.00;;;;;;5072033;29;20061;-68
2023/04/22 06:02:11;;;;;;;6.68;4.43;;;14.50;1.00;;;;;;5081200;28;20043;-68
2023/04/22 06:04:45;;;;;;;4.95;4.20;;;14.60;1.00;;;;;;5083959;28;20049;-70
2023/04/22 06:07:21;;;;;;;6.03;4.55;;;14.60;1.00;;;;;;5091399;29;20372;-69
2023/04/22 06:09:55;;;;;;;9.30;5.05;;;14.70;1.00;;;;;;5091702;29;20038;-70
2023/04/22 06:12:26;;;;;;;6.77;4.60;;;14.80;1.00;;;;;;5091995;28;20027;-67
2023/04/22 06:15:00;;;;;;;7.65;4.35;;;15.00;1.00;;;;;;5108062;29;20575;-70
2023/04/22 06:17:34;;;;;;;5.72;4.35;;;15.20;1.00;;;;;;5075006;29;20043;-70
2023/04/22 06:20:05;;;;;;;7.40;5.28;;;15.40;1.00;;;;;;5099978;29;20032;-72
2023/04/22 06:22:40;;;;;;;5.85;3.90;;;15.30;1.00;;;;;;5103022;28;20027;-68
2023/04/22 06:25:15;;;;;;;5.93;3.80;;;15.30;1.00;;;;;;5115272;28;20047;-68
2023/04/22 06:27:49;;;;;;;4.40;4.00;;;15.30;1.00;;;;;;5078100;28;20036;-70
2023/04/22 06:30:20;;;;;;;5.40;3.85;;;15.20;1.00;;;;;;5070350;29;20039;-70
2023/04/22 06:32:52;;;;;;;4.40;3.70;;;15.40;1.00;;;;;;5103568;28;20052;-72
2023/04/22 06:35:23;;;;;;;4.72;4.07;;;15.40;1.00;;;;;;5127642;28;20027;-70
2023/04/22 06:37:59;;;;;;;4.05;3.30;;;15.50;1.00;;;;;;5114372;29;20061;-70
2023/04/22 06:40:30;;;;;;;4.25;3.85;;;15.70;1.00;;;;;;5114114;28;20058;-70
2023/04/22 06:43:02;;;;;;;4.65;3.72;;;15.50;1.00;;;;;;5104365;28;20038;-71
2023/04/22 06:45:36;;;;;;;4.25;3.60;;;15.50;1.00;;;;;;5104569;28;20031;-69
2023/04/22 06:48:12;;;;;;;5.85;3.65;;;15.70;1.00;;;;;;5104687;29;20434;-68
2023/04/22 06:50:43;;;;;;;4.30;3.20;;;15.80;1.00;;;;;;5103914;28;20054;-68
2023/04/22 06:53:14;;;;;;;4.03;3.13;;;15.90;1.00;;;;;;5148981;28;20043;-71
2023/04/22 06:55:49;;;;;;;4.93;2.90;;;16.00;1.00;;;;;;5143519;28;20026;-71
2023/04/22 06:58:20;;;;;;;5.05;2.88;;;16.40;1.00;;;;;;5112933;28;20042;-69
2023/04/22 07:00:54;;;;;;;3.80;3.15;;;16.90;1.00;;;;;;5086899;28;20047;-72
2023/04/22 07:03:32;;;;;;;5.80;3.65;;;17.00;1.00;;;;;;5151431;28;20062;-71
2023/04/22 07:06:06;;;;;;;5.28;3.25;;;16.90;1.00;;;;;;5104814;28;20048;-71
2023/04/22 07:08:38;;;;;;;7.07;3.38;;;17.00;26.80;;;;;;5071283;29;20054;-70
2023/04/22 07:11:15;;;;;;;3.17;2.58;;;16.70;75.60;;;;;;5073749;29;20095;-68
2023/04/22 07:13:51;;;;;;;3.40;2.88;;;16.70;99.90;;;;;;5106426;28;20039;-71
2023/04/22 07:16:22;;;;;;;4.80;2.72;;;16.90;99.90;;;;;;5092459;28;20045;-70
2023/04/22 07:18:54;;;;;;;3.50;3.20;;;17.20;99.90;;;;;;5124805;28;20051;-69
2023/04/22 07:21:31;;;;;;;4.95;2.97;;;17.60;99.90;;;;;;5114666;28;20031;-70
2023/04/22 07:24:02;;;;;;;4.25;3.03;;;17.70;99.90;;;;;;5103040;28;20472;-71
2023/04/22 07:26:34;;;;;;;4.53;2.90;;;17.90;99.90;;;;;;5087413;29;20384;-69
2023/04/22 07:29:06;;;;;;;2.85;2.58;;;18.00;99.90;;;;;;5088890;28;20650;-73
2023/04/22 07:31:40;;;;;;;3.90;3.28;;;18.10;99.90;;;;;;5056159;28;20043;-71
2023/04/22 07:34:13;;;;;;;3.30;3.00;;;18.20;99.90;;;;;;5106490;29;20027;-69
2023/04/22 07:36:44;;;;;;;3.75;3.28;;;18.40;99.90;;;;;;5090572;29;20451;-68
2023/04/22 07:39:15;;;;;;;3.40;2.85;;;18.50;99.90;;;;;;5108145;28;20035;-71
2023/04/22 07:41:49;;;;;;;3.35;3.03;;;18.40;99.90;;;;;;5102038;29;20042;-71
2023/04/22 07:44:23;;;;;;;6.78;3.05;;;18.40;99.90;;;;;;5096061;28;20370;-71
2023/04/22 07:47:02;;;;;;;4.40;3.20;;;18.30;99.90;;;;;;5112322;28;20054;-67
2023/04/22 07:49:35;;;;;;;4.38;3.53;;;18.10;99.90;;;;;;5074538;29;20030;-70
2023/04/22 07:52:09;;;;;;;6.10;3.83;;;18.30;99.90;;;;;;5107083;29;20042;-67
2023/04/22 07:54:43;;;;;;;7.63;3.70;;;18.40;99.90;;;;;;5088888;28;20050;-72
2023/04/22 07:57:14;;;;;;;5.30;3.63;;;18.60;99.90;;;;;;5100795;28;20583;-70
2023/04/22 07:59:50;;;;;;;5.53;3.63;;;18.60;99.90;;;;;;5107771;28;20034;-70
2023/04/22 08:02:24;;;;;;;4.03;3.28;;;18.50;99.90;;;;;;5104826;28;20423;-70
2023/04/22 08:05:00;;;;;;;4.93;3.75;;;18.60;99.90;;;;;;5098289;28;20043;-72
2023/04/22 08:07:31;;;;;;;5.15;3.15;;;18.90;99.90;;;;;;5107678;28;20226;-71
2023/04/22 08:10:06;;;;;;;5.18;3.72;;;19.00;99.90;;;;;;5105701;28;20043;-71
2023/04/22 08:12:37;;;;;;;4.47;3.97;;;18.70;99.90;;;;;;5175352;28;20046;-67
2023/04/22 08:15:09;;;;;;;5.00;3.70;;;18.40;99.90;;;;;;5137230;28;20031;-70
2023/04/22 08:17:40;;;;;;;5.00;3.75;;;18.10;99.90;;;;;;5126667;28;20361;-71
2023/04/22 08:20:11;;;;;;;3.88;3.13;;;18.40;99.90;;;;;;5127105;28;20463;-71
2023/04/22 08:22:43;;;;;;;4.95;3.90;;;18.60;99.90;;;;;;5116212;28;20039;-71
2023/04/22 08:25:15;;;;;;;5.28;4.05;;;18.60;99.90;;;;;;5090050;29;20030;-71
2023/04/22 08:27:46;;;;;;;4.93;3.65;;;18.80;99.90;;;;;;5113948;28;20057;-70
2023/04/22 08:30:18;;;;;;;4.85;3.33;;;19.40;99.90;;;;;;5110380;28;20153;-74
2023/04/22 08:32:52;;;;;;;7.53;4.72;;;19.60;99.90;;;;;;5165274;28;20516;-71
2023/04/22 08:35:25;;;;;;;6.70;3.92;;;19.90;99.90;;;;;;5129595;28;20042;-71
2023/04/22 08:37:57;;;;;;;5.25;4.20;;;19.90;99.90;;;;;;5109839;28;20027;-69
2023/04/22 08:40:29;;;;;;;4.35;3.42;;;19.90;99.90;;;;;;5176454;28;20023;-66
2023/04/22 08:43:06;;;;;;;6.30;4.30;;;20.10;99.90;;;;;;5091823;29;20208;-69
2023/04/22 08:45:38;;;;;;;6.93;3.70;;;20.10;99.90;;;;;;5105894;29;20023;-71
2023/04/22 08:48:13;;;;;;;6.13;4.07;;;20.40;99.90;;;;;;5104698;29;20039;-69
2023/04/22 08:50:47;;;;;;;3.97;3.63;;;20.80;99.90;;;;;;5107217;28;20058;-72
2023/04/22 08:53:19;;;;;;;;;;;20.90;99.90;;;;;;5108037;28;20047;-70
2023/04/22 08:55:54;;;;;;;5.05;3.50;;;20.90;99.90;;;;;;5105847;29;19915;-71
2023/04/22 08:58:28;;;;;;;;;;;20.90;99.90;;;;;;5089637;29;20034;-71
2023/04/22 09:01:02;;;;;;;6.60;3.40;;;20.90;99.90;;;;;;5089664;29;20895;-71
2023/04/22 09:03:42;;;;;;;5.10;4.07;;;20.80;99.90;;;;;;5098814;28;20044;-70
2023/04/22 09:06:18;;;;;;;4.85;3.97;;;21.10;99.90;;;;;;5099051;28;20061;-70
2023/04/22 09:08:52;;;;;;;3.28;2.72;;;21.00;99.90;;;;;;5114977;28;20045;-73
2023/04/22 09:11:30;;;;;;;6.40;3.20;;;21.00;99.90;;;;;;5077478;28;20053;-72
2023/04/22 09:14:05;;;;;;;4.95;3.13;;;21.10;99.90;;;;;;5179501;28;20039;-71
2023/04/22 09:16:45;;;;;;;6.15;3.55;;;21.60;99.90;;;;;;5191795;28;20326;-69
2023/04/22 09:19:25;;;;;;;3.72;3.05;;;21.80;99.90;;;;;;5106439;29;20043;-72
2023/04/22 09:21:59;;;;;;;5.47;2.60;;;21.80;99.90;;;;;;5108802;29;20502;-70
2023/04/22 09:24:33;;;;;;;3.95;3.22;;;21.50;99.90;;;;;;5091856;28;20039;-70
2023/04/22 09:27:04;;;;;;;4.53;3.07;;;21.40;99.90;;;;;;5110709;29;20252;-70
2023/04/22 09:29:35;;;;;;;4.38;3.00;;;21.80;99.90;;;;;;5089555;29;20035;-72
2023/04/22 09:32:12;;;;;;;2.17;1.98;;;22.20;99.90;;;;;;5107331;29;20035;-71
2023/04/22 09:34:50;;;;;;;4.80;2.90;;;22.70;99.90;;;;;;5090433;28;20387;-70
2023/04/22 09:37:29;;;;;;;3.97;2.55;;;22.90;99.90;;;;;;5090378;28;20046;-72
2023/04/22 09:40:00;;;;;;;6.85;2.58;;;22.70;99.90;;;;;;5076094;28;20031;-69
2023/04/22 09:42:53;;;;;;;4.35;2.78;;;22.70;99.90;;;;;;5076373;29;20042;-71
2023/04/22 09:45:43;;;;;;;3.50;2.92;;;22.60;99.90;;;;;;5110145;29;20529;-68
2023/04/22 09:48:18;;;;;;;3.72;2.42;;;22.40;99.90;;;;;;5103777;28;20031;-69
2023/04/22 09:50:52;;;;;;;4.07;3.25;;;22.10;99.90;;;;;;5090021;29;20039;-71
2023/04/22 09:53:28;;;;;;;2.85;2.45;;;22.00;99.90;;;;;;5089933;29;20527;-71
2023/04/22 09:56:06;;;;;;;3.25;2.25;;;22.50;99.90;;;;;;5086076;29;20047;-70
2023/04/22 09:58:39;;;;;;;5.40;2.85;;;23.40;99.90;;;;;;5090349;29;20045;-70
2023/04/22 10:01:13;;;;;;;4.03;2.67;;;23.00;99.90;;;;;;5105366;28;20033;-71
2023/04/22 10:03:47;;;;;;;4.78;2.55;;;22.80;99.90;;;;;;5078695;29;20561;-70
2023/04/22 10:06:18;;;;;;;4.50;3.05;;;23.00;99.90;;;;;;5081354;28;20052;-69
2023/04/22 10:08:51;;;;;;;3.35;2.22;;;22.90;99.90;;;;;;5089960;29;20032;-71
2023/04/22 10:11:25;;;;;;;4.53;2.25;;;22.50;99.90;;;;;;5108496;28;20247;-71
2023/04/22 10:14:02;;;;;;;3.67;2.20;;;22.70;99.90;;;;;;5109244;28;20035;-71
2023/04/22 10:16:35;;;;;;;3.42;2.17;;;22.80;99.90;;;;;;5119981;28;20035;-72
2023/04/22 10:19:16;;;;;;;4.03;2.20;;;23.60;99.90;;;;;;5108851;28;20039;-69
2023/04/22 10:21:53;;;;;;;2.97;1.80;;;23.70;99.90;;;;;;5100007;28;20042;-72
2023/04/22 10:24:36;;;;;;;3.05;2.25;;;24.00;99.90;;;;;;5109706;28;20043;-70
2023/04/22 10:27:10;;;;;;;2.60;2.20;;;23.20;99.90;;;;;;5095609;29;20043;-71
2023/04/22 10:29:43;;;;;;;5.55;2.08;;;24.30;99.90;;;;;;5121531;28;20035;-70
2023/04/22 10:32:20;;;;;;;3.58;2.95;;;25.00;99.90;;;;;;5109426;28;20038;-69
2023/04/22 10:35:12;;;;;;;2.63;1.92;;;24.30;99.90;;;;;;5123034;29;20482;-67
2023/04/22 10:37:45;;;;;;;2.33;1.92;;;24.70;99.90;;;;;;5121829;29;20035;-69
2023/04/22 10:40:17;;;;;;;2.42;1.95;;;26.00;99.90;;;;;;5102404;29;20031;-68
2023/04/22 10:42:54;;;;;;;2.97;1.70;;;26.50;99.90;;;;;;5119367;29;20035;-68
2023/04/22 10:45:26;;;;;;;2.63;2.10;;;26.10;99.90;;;;;;5200738;28;20031;-70
2023/04/22 10:48:03;;;;;;;3.80;2.20;;;25.50;99.90;;;;;;5114089;28;20043;-72
2023/04/22 10:50:39;;;;;;;4.03;2.25;;;26.40;99.90;;;;;;5104864;28;20038;-70
2023/04/22 10:53:33;;;;;;;2.97;2.10;;;27.00;99.90;;;;;;5090463;28;20355;-72
2023/04/22 10:56:19;;;;;;;2.97;2.10;;;27.10;99.90;;;;;;5103621;29;20038;-70
2023/04/22 10:58:55;;;;;;;2.45;1.83;;;27.20;99.90;;;;;;5093321;28;20044;-71
2023/04/22 11:01:27;;;;;;;3.88;1.90;;;26.50;99.90;;;;;;5106329;28;20038;-70
2023/04/22 11:04:22;;;;;;;6.15;2.55;;;26.30;99.90;;;;;;5125284;28;20042;-70
2023/04/22 11:07:19;;;;;;;2.15;1.75;;;25.80;99.90;;;;;;5099189;28;20066;-71
2023/04/22 11:10:04;;;;;;;4.47;1.65;;;25.20;99.90;;;;;;5112486;28;20271;-70
2023/04/22 11:12:38;;;;;;;2.45;1.60;;;26.40;99.90;;;;;;5101699;29;20035;-71
2023/04/22 11:15:17;;;;;;;2.65;1.77;;;27.50;99.90;;;;;;5097454;28;20066;-71
2023/04/22 11:17:57;;;;;;;4.03;1.90;;;28.00;99.90;;;;;;5095865;29;20048;-69
2023/04/22 11:20:31;;;;;;;1.92;1.70;;;28.00;99.90;;;;;;5106003;28;20499;-69
2023/04/22 11:23:04;;;;;;;2.75;1.50;;;27.80;99.90;;;;;;5107680;28;20036;-71
2023/04/22 11:25:38;;;;;;;2.78;2.22;;;28.90;99.90;;;;;;5110615;29;20034;-71
2023/04/22 11:28:09;;;;;;;2.33;1.50;;;28.90;99.90;;;;;;5119052;28;20027;-71
2023/04/22 11:30:43;;;;;;;2.20;1.63;;;28.10;99.90;;;;;;5080292;28;20460;-69
2023/04/22 11:33:22;;;;;;;2.92;2.25;;;26.70;99.90;;;;;;5095167;29;20542;-71
2023/04/22 11:35:58;;;;;;;5.30;2.22;;;27.00;99.90;;;;;;5095058;28;20046;-69
2023/04/22 11:38:32;;;;;;;2.15;1.88;;;28.40;99.90;;;;;;5096313;29;20048;-68
2023/04/22 11:41:06;;;;;;;2.67;1.40;;;28.10;99.90;;;;;;5111987;29;20035;-71
2023/04/22 11:43:46;;;;;;;2.50;1.60;;;28.40;99.70;;;;;;5095048;28;20039;-71
2023/04/22 11:46:28;;;;;;;3.72;2.22;;;27.60;99.90;;;;;;5112458;28;20023;-70
2023/04/22 11:49:16;;;;;;;2.13;1.63;;;27.90;99.40;;;;;;5117190;29;20031;-70
2023/04/22 11:51:56;;;;;;;2.03;1.83;;;28.40;98.90;;;;;;5121186;28;20039;-71
2023/04/22 12:09:35;;;;;;;3.03;1.83;;;28.40;97.00;;;;;;5232233;28;20568;-68
2023/04/22 12:12:09;;;;;;;2.20;1.77;;;28.20;97.20;;;;;;5212491;28;20045;-68
2023/04/22 12:14:47;;;;;;;2.00;1.80;;;27.40;97.80;;;;;;5213373;28;20209;-69
2023/04/22 12:17:24;;;;;;;2.20;1.77;;;26.20;98.10;;;;;;5206275;28;20268;-71
2023/04/22 12:19:56;;;;;;;1.67;1.55;;;25.90;98.60;;;;;;5195332;28;20036;-70
2023/04/22 12:22:32;;;;;;;4.03;1.70;;;26.40;98.30;;;;;;5194583;28;20220;-66
2023/04/22 12:25:04;;;;;;;2.85;2.15;;;27.10;97.40;;;;;;5208851;28;20035;-69
2023/04/22 12:27:40;;;;;;;2.20;1.80;;;28.00;97.70;;;;;;5211274;28;20045;-69
2023/04/22 12:30:16;;;;;;;2.42;1.65;;;28.60;96.80;;;;;;5192141;28;20074;-66
2023/04/22 12:32:48;;;;;;;1.67;1.52;;;28.50;95.70;;;;;;5175768;28;20044;-69
2023/04/22 12:35:22;;;;;;;2.75;2.22;;;28.10;96.60;;;;;;5175055;28;20134;-71
2023/04/22 12:37:58;;;;;;;2.38;1.80;;;27.60;96.30;;;;;;5195002;28;20049;-69
2023/04/22 12:40:32;;;;;;;4.10;1.52;;;28.80;96.80;;;;;;5210190;28;20036;-69
2023/04/22 12:43:04;;;;;;;2.00;1.63;;;27.90;94.70;;;;;;5210521;28;20029;-68
2023/04/22 12:45:37;;;;;;;3.35;1.77;;;28.80;95.20;;;;;;5175493;28;20060;-70
2023/04/22 12:48:14;;;;;;;2.60;1.65;;;28.70;94.20;;;;;;5177646;28;20063;-69
2023/04/22 12:50:45;;;;;;;1.80;1.70;;;28.60;94.30;;;;;;5175058;28;20039;-71
2023/04/22 12:53:19;;;;;;;1.70;1.60;;;28.80;94.30;;;;;;5193735;28;20025;-69
2023/04/22 12:55:54;;;;;;;6.22;2.63;;;28.80;94.10;;;;;;5180394;28;20049;-71
2023/04/22 12:58:28;;;;;;;3.67;1.67;;;28.60;93.80;;;;;;5215266;28;20403;-68
2023/04/22 13:01:02;;;;;;;2.20;2.00;;;28.80;94.40;;;;;;5217335;28;20043;-66
2023/04/22 13:03:34;;;;;;;1.75;1.60;;;28.20;94.60;;;;;;5210278;28;20036;-68
2023/04/22 13:06:08;;;;;;;1.70;1.60;;;26.20;95.90;;;;;;5158280;28;20076;-67
2023/04/22 13:08:40;;;;;;;2.15;1.92;;;25.80;96.20;;;;;;5122638;28;20069;-69
2023/04/22 13:11:14;;;;;;;1.77;1.60;;;26.60;95.60;;;;;;5128906;28;20346;-66
2023/04/22 13:13:48;;;;;;;;;;;28.70;94.90;;;;;;5140677;28;20046;-69
2023/04/22 13:16:20;;;;;;;2.13;1.70;;;29.20;93.30;;;;;;5140524;28;19914;-69
2023/04/22 13:18:54;;;;;;;2.10;1.50;;;29.90;92.50;;;;;;5137705;28;20043;-68
2023/04/22 13:21:28;;;;;;;1.85;1.75;;;30.10;91.60;;;;;;5097317;28;20248;-70
2023/04/22 13:24:02;;;;;;;2.53;1.77;;;28.40;92.40;;;;;;5120701;28;20039;-71
2023/04/22 13:26:38;;;;;;;2.03;1.83;;;28.40;92.60;;;;;;5146149;28;20192;-69
2023/04/22 13:29:12;;;;;;;2.15;1.90;;;27.80;93.80;;;;;;5123101;28;20051;-65
2023/04/22 13:31:45;;;;;;;2.55;1.63;;;28.60;92.80;;;;;;5151732;28;20267;-67
2023/04/22 13:34:19;;;;;;;2.13;1.80;;;28.50;92.90;;;;;;5136631;28;20048;-66
2023/04/22 13:36:50;;;;;;;;;;;28.30;92.50;;;;;;5137564;28;20029;-69
2023/04/22 13:39:25;;;;;;;1.65;1.50;;;29.30;92.00;;;;;;5155746;28;20126;-70
2023/04/22 13:42:05;;;;;;;1.60;1.50;;;30.10;92.40;;;;;;5135191;28;20457;-69
2023/04/22 13:44:39;;;;;;;1.95;1.60;;;31.20;90.50;;;;;;5147056;28;20038;-69
2023/04/22 13:47:15;;;;;;;1.98;1.60;;;30.70;91.00;;;;;;5142795;28;20174;-68